createdAt,value
2023-03-13T00:01:10.990Z,11.50
2023-03-13T00:03:40.386Z,9.93
2023-03-13T00:06:08.610Z,10.13
2023-03-13T00:08:36.662Z,12.07
2023-03-13T00:11:05.327Z,8.50
2023-03-13T00:13:33.520Z,12.80
2023-03-13T00:16:02.730Z,5.43
2023-03-13T00:18:31.071Z,14.63
2023-03-13T00:21:01.200Z,16.20
2023-03-13T00:23:29.850Z,9.20
2023-03-13T00:25:59.301Z,8.80
2023-03-13T00:28:30.058Z,8.67
2023-03-13T00:31:03.713Z,12.33
2023-03-13T00:33:33.563Z,9.10
2023-03-13T00:36:05.271Z,9.80
2023-03-13T00:38:34.773Z,5.67
2023-03-13T00:41:05.692Z,5.67
2023-03-13T00:43:34.403Z,12.13
2023-03-13T00:46:03.169Z,10.43
2023-03-13T00:48:31.442Z,6.00
2023-03-13T00:51:02.355Z,17.40
2023-03-13T00:53:30.805Z,5.37
2023-03-13T00:56:00.571Z,8.50
2023-03-13T00:58:30.822Z,8.30
2023-03-13T01:00:59.005Z,7.10
2023-03-13T01:03:27.310Z,14.83
2023-03-13T01:05:59.339Z,8.03
2023-03-13T01:08:29.947Z,20.67
2023-03-13T01:11:01.411Z,4.43
2023-03-13T01:13:30.063Z,9.20
2023-03-13T01:15:58.990Z,6.93
2023-03-13T01:18:27.108Z,11.83
2023-03-13T01:20:55.220Z,11.20
2023-03-13T01:23:23.266Z,5.57
2023-03-13T01:25:52.669Z,8.93
2023-03-13T01:28:20.757Z,13.83
2023-03-13T01:30:49.597Z,8.17
2023-03-13T01:33:18.088Z,5.07
2023-03-13T01:35:46.504Z,13.53
2023-03-13T01:38:15.149Z,7.00
2023-03-13T01:40:45.114Z,9.47
2023-03-13T01:43:27.333Z,12.07
2023-03-13T01:46:17.687Z,11.07
2023-03-13T01:49:06.350Z,5.60
2023-03-13T01:51:43.098Z,12.03
2023-03-13T01:54:16.372Z,13.30
2023-03-13T01:56:51.339Z,8.60
2023-03-13T01:59:25.017Z,10.80
2023-03-13T02:01:55.240Z,7.37
2023-03-13T02:04:25.092Z,13.63
2023-03-13T02:06:57.679Z,6.70
2023-03-13T02:09:30.235Z,9.90
2023-03-13T02:12:05.686Z,9.60
2023-03-13T02:14:38.558Z,16.97
2023-03-13T02:17:08.447Z,6.23
2023-03-13T02:19:42.626Z,7.63
2023-03-13T02:22:19.931Z,10.63
2023-03-13T02:24:56.263Z,5.27
2023-03-13T02:27:26.688Z,5.33
2023-03-13T02:29:55.252Z,11.17
2023-03-13T02:32:24.410Z,14.13
2023-03-13T02:34:57.322Z,6.23
2023-03-13T02:37:26.978Z,9.17
2023-03-13T02:39:57.815Z,8.97
2023-03-13T02:42:28.925Z,6.77
2023-03-13T02:44:57.070Z,16.57
2023-03-13T02:47:26.282Z,14.23
2023-03-13T02:49:55.733Z,9.33
2023-03-13T02:52:27.506Z,9.60
2023-03-13T02:54:59.682Z,6.97
2023-03-13T02:57:29.441Z,7.50
2023-03-13T02:59:57.506Z,11.73
2023-03-13T03:02:25.846Z,5.20
2023-03-13T03:04:54.987Z,14.93
2023-03-13T03:07:23.015Z,10.00
2023-03-13T03:09:51.410Z,12.13
2023-03-13T03:12:21.085Z,12.03
2023-03-13T03:14:50.799Z,5.57
2023-03-13T03:17:19.737Z,10.20
2023-03-13T03:19:47.921Z,5.70
2023-03-13T03:22:15.988Z,11.07
2023-03-13T03:24:44.042Z,4.93
2023-03-13T03:27:12.093Z,3.93
2023-03-13T03:29:46.433Z,7.73
2023-03-13T03:32:15.945Z,3.80
2023-03-13T03:34:44.315Z,7.83
2023-03-13T03:37:12.364Z,10.50
2023-03-13T03:39:40.932Z,10.80
2023-03-13T03:42:10.110Z,3.00
2023-03-13T03:44:38.415Z,10.47
2023-03-13T03:47:07.199Z,13.60
2023-03-13T03:49:40.895Z,3.63
2023-03-13T03:52:11.349Z,10.00
2023-03-13T03:54:42.234Z,6.23
2023-03-13T03:57:10.425Z,9.63
2023-03-13T03:59:39.292Z,5.47
2023-03-13T04:02:09.499Z,7.20
2023-03-13T04:04:38.081Z,11.53
2023-03-13T04:07:11.610Z,12.53
2023-03-13T04:09:41.306Z,6.30
2023-03-13T04:12:12.156Z,5.70
2023-03-13T04:14:44.211Z,9.97
2023-03-13T04:17:14.043Z,8.80
2023-03-13T04:19:43.801Z,7.53
2023-03-13T04:22:13.228Z,11.60
2023-03-13T04:24:47.288Z,3.07
2023-03-13T04:27:15.387Z,6.73
2023-03-13T04:29:44.565Z,17.00
2023-03-13T04:32:31.106Z,5.70
2023-03-13T04:35:12.374Z,8.67
2023-03-13T04:37:48.236Z,3.90
2023-03-13T04:40:16.372Z,11.73
2023-03-13T04:43:10.871Z,11.67
2023-03-13T04:45:50.090Z,9.00
2023-03-13T04:48:18.151Z,8.80
2023-03-13T04:50:56.958Z,9.27
2023-03-13T04:53:32.169Z,6.63
2023-03-13T04:56:32.500Z,15.27
2023-03-13T04:59:29.771Z,9.20
2023-03-13T05:02:19.455Z,15.13
2023-03-13T05:05:06.398Z,5.50
2023-03-13T05:08:03.782Z,9.77
2023-03-13T05:10:44.652Z,10.93
2023-03-13T05:13:32.928Z,6.67
2023-03-13T05:16:15.397Z,12.40
2023-03-13T05:19:06.350Z,7.90
2023-03-13T05:22:00.980Z,13.80
2023-03-13T05:24:46.660Z,6.00
2023-03-13T05:27:43.787Z,8.50
2023-03-13T05:30:39.769Z,10.63
2023-03-13T05:33:13.881Z,11.23
2023-03-13T05:36:05.325Z,5.10
2023-03-13T05:38:45.098Z,8.93
2023-03-13T05:41:35.968Z,14.03
2023-03-13T05:44:31.240Z,8.60
2023-03-13T05:47:18.599Z,9.40
2023-03-13T05:50:08.569Z,7.27
2023-03-13T05:52:52.791Z,10.40
2023-03-13T05:55:34.859Z,4.60
2023-03-13T05:58:16.340Z,5.17
2023-03-13T06:01:09.546Z,6.60
2023-03-13T06:03:43.307Z,4.60
2023-03-13T06:06:13.582Z,8.83
2023-03-13T06:08:46.939Z,12.80
2023-03-13T06:11:15.765Z,3.83
2023-03-13T06:13:44.074Z,3.60
2023-03-13T06:16:29.226Z,6.53
2023-03-13T06:19:12.924Z,1.60
2023-03-13T06:21:41.035Z,5.33
2023-03-13T06:24:09.202Z,5.00
2023-03-13T06:26:37.215Z,4.60
2023-03-13T06:29:05.249Z,3.60
2023-03-13T06:31:34.641Z,5.70
2023-03-13T06:34:02.742Z,8.40
2023-03-13T06:36:30.748Z,6.70
2023-03-13T06:38:58.821Z,6.80
2023-03-13T06:41:27.668Z,5.70
2023-03-13T06:43:55.687Z,10.27
2023-03-13T06:46:25.998Z,3.70
2023-03-13T06:48:55.450Z,4.87
2023-03-13T06:51:24.014Z,3.50
2023-03-13T06:53:52.690Z,6.17
2023-03-13T06:56:21.709Z,5.07
2023-03-13T06:58:50.412Z,6.03
2023-03-13T07:01:19.410Z,8.93
2023-03-13T07:03:49.270Z,10.73
2023-03-13T07:06:19.630Z,6.20
2023-03-13T07:08:48.487Z,3.60
2023-03-13T07:11:17.025Z,3.73
2023-03-13T07:13:45.108Z,2.63
2023-03-13T07:16:14.703Z,2.70
2023-03-13T07:18:44.508Z,2.80
2023-03-13T07:21:13.245Z,4.10
2023-03-13T07:23:42.592Z,3.83
2023-03-13T07:26:13.011Z,2.73
2023-03-13T07:28:41.354Z,4.00
2023-03-13T07:31:12.297Z,4.57
2023-03-13T07:33:41.020Z,3.87
2023-03-13T07:36:09.855Z,5.37
2023-03-13T07:38:38.037Z,5.40
2023-03-13T07:41:08.037Z,5.50
2023-03-13T07:43:36.080Z,5.93
2023-03-13T07:46:06.522Z,1.90
2023-03-13T07:48:36.292Z,3.63
2023-03-13T07:51:05.743Z,1.90
2023-03-13T07:53:34.254Z,2.30
2023-03-13T07:56:04.044Z,2.47
2023-03-13T07:58:35.601Z,2.30
2023-03-13T08:01:10.051Z,0.90
2023-03-13T08:03:39.061Z,2.30
2023-03-13T08:06:09.575Z,1.10
2023-03-13T08:08:38.041Z,1.10
2023-03-13T08:11:08.994Z,2.10
2023-03-13T08:13:39.004Z,2.03
2023-03-13T08:16:08.776Z,1.00
2023-03-13T08:18:38.121Z,2.37
2023-03-13T08:21:07.540Z,0.90
2023-03-13T08:23:36.254Z,1.20
2023-03-13T08:26:06.909Z,2.97
2023-03-13T08:28:35.543Z,1.00
2023-03-13T08:31:12.709Z,1.20
2023-03-13T08:33:41.512Z,1.40
2023-03-13T08:36:12.210Z,2.77
2023-03-13T08:38:42.078Z,1.40
2023-03-13T08:41:10.197Z,1.03
2023-03-13T08:43:38.377Z,1.50
2023-03-13T08:46:06.720Z,1.53
2023-03-13T08:48:36.404Z,2.50
2023-03-13T08:51:06.564Z,2.40
2023-03-13T08:53:35.736Z,2.13
2023-03-13T08:56:04.424Z,2.13
2023-03-13T08:58:32.530Z,2.60
2023-03-13T09:01:03.227Z,3.70
2023-03-13T09:03:31.483Z,4.40
2023-03-13T09:06:01.684Z,2.73
2023-03-13T09:08:30.511Z,1.40
2023-03-13T09:10:59.578Z,1.40
2023-03-13T09:13:28.969Z,2.50
2023-03-13T09:15:57.510Z,1.57
2023-03-13T09:18:25.914Z,1.97
2023-03-13T09:20:54.188Z,1.70
2023-03-13T09:23:24.511Z,1.70
2023-03-13T09:25:54.710Z,2.03
2023-03-13T09:28:23.087Z,1.90
2023-03-13T09:30:51.222Z,2.37
2023-03-13T09:33:19.489Z,3.50
2023-03-13T09:35:50.865Z,1.80
2023-03-13T09:38:19.633Z,3.53
2023-03-13T09:41:05.375Z,6.20
2023-03-13T09:43:42.776Z,1.30
2023-03-13T09:46:17.596Z,3.37
2023-03-13T09:48:48.961Z,2.20
2023-03-13T09:51:22.410Z,1.17
2023-03-13T09:53:55.865Z,1.30
2023-03-13T09:56:28.959Z,1.60
2023-03-13T09:59:00.171Z,1.10
2023-03-13T10:01:31.251Z,5.00
2023-03-13T10:04:15.239Z,2.00
2023-03-13T10:06:45.577Z,1.40
2023-03-13T10:09:21.408Z,1.30
2023-03-13T10:11:58.839Z,2.60
2023-03-13T10:14:31.759Z,1.87
2023-03-13T10:17:06.728Z,15.30
2023-03-13T10:19:38.404Z,1.40
2023-03-13T10:22:14.378Z,1.13
2023-03-13T10:24:50.660Z,1.90
2023-03-13T10:27:19.978Z,2.37
2023-03-13T10:29:47.972Z,2.90
2023-03-13T10:32:18.131Z,2.90
2023-03-13T10:34:51.505Z,6.93
2023-03-13T10:37:24.182Z,3.20
2023-03-13T10:39:52.737Z,2.97
2023-03-13T10:42:29.544Z,3.30
2023-03-13T10:45:00.603Z,2.23
2023-03-13T10:47:28.934Z,2.50
2023-03-13T10:49:58.529Z,4.27
2023-03-13T10:52:34.645Z,2.80
2023-03-13T10:55:04.512Z,2.57
2023-03-13T10:57:35.858Z,3.30
2023-03-13T11:00:23.848Z,2.07
2023-03-13T11:02:52.262Z,3.40
2023-03-13T11:05:38.040Z,2.47
2023-03-13T11:08:20.000Z,2.20
2023-03-13T11:10:59.683Z,3.80
2023-03-13T11:13:42.755Z,2.80
2023-03-13T11:16:22.030Z,2.80
2023-03-13T11:19:11.082Z,1.57
2023-03-13T11:21:48.114Z,2.70
2023-03-13T11:24:22.076Z,3.10
2023-03-13T11:27:04.801Z,1.30
2023-03-13T11:29:44.111Z,2.10
2023-03-13T11:32:22.709Z,3.10
2023-03-13T11:34:56.070Z,3.57
2023-03-13T11:37:25.688Z,2.73
2023-03-13T11:40:05.640Z,2.73
2023-03-13T11:43:21.680Z,2.20
2023-03-13T11:46:05.544Z,2.17
2023-03-13T11:48:51.030Z,2.20
2023-03-13T11:51:25.702Z,3.43
2023-03-13T11:54:12.929Z,2.90
2023-03-13T11:56:45.221Z,7.60
2023-03-13T11:59:32.989Z,2.33
2023-03-13T12:02:06.630Z,2.50
2023-03-13T12:04:40.248Z,4.60
2023-03-13T12:07:21.298Z,5.43
2023-03-13T12:09:54.733Z,5.37
2023-03-13T12:12:34.044Z,2.83
2023-03-13T12:15:09.627Z,2.80
2023-03-13T12:17:43.142Z,2.50
2023-03-13T12:20:19.819Z,3.47
2023-03-13T12:22:58.173Z,4.00
2023-03-13T12:25:29.982Z,2.40
2023-03-13T12:28:05.328Z,3.20
2023-03-13T12:30:39.011Z,4.73
2023-03-13T12:33:23.639Z,3.20
2023-03-13T12:35:59.536Z,2.30
2023-03-13T12:38:32.251Z,3.60
2023-03-13T12:41:09.480Z,3.17
2023-03-13T12:43:41.750Z,4.33
2023-03-13T12:46:38.119Z,2.17
2023-03-13T12:49:47.825Z,3.23
2023-03-13T12:52:59.657Z,2.40
2023-03-13T12:55:52.489Z,3.23
2023-03-13T12:58:30.374Z,2.23
2023-03-13T13:01:04.864Z,3.53
2023-03-13T13:03:36.803Z,1.53
2023-03-13T13:06:07.728Z,2.00
2023-03-13T13:08:42.849Z,2.73
2023-03-13T13:11:41.744Z,2.73
2023-03-13T13:14:54.797Z,7.73
2023-03-13T13:17:31.288Z,2.17
2023-03-13T13:19:59.569Z,6.20
2023-03-13T13:22:52.701Z,1.60
2023-03-13T13:25:32.113Z,3.50
2023-03-13T13:28:23.121Z,3.03
2023-03-13T13:30:54.549Z,1.63
2023-03-13T13:33:42.025Z,1.97
2023-03-13T13:36:29.317Z,1.97
2023-03-13T13:38:58.704Z,4.40
2023-03-13T13:41:37.095Z,2.30
2023-03-13T13:44:35.366Z,1.40
2023-03-13T13:47:04.128Z,3.33
2023-03-13T13:49:38.659Z,1.87
2023-03-13T13:52:36.354Z,3.63
2023-03-13T13:55:25.300Z,3.30
2023-03-13T13:58:01.121Z,2.83
2023-03-13T14:00:35.747Z,4.70
2023-03-13T14:03:03.825Z,3.47
2023-03-13T14:05:33.425Z,2.13
2023-03-13T14:08:05.657Z,1.73
2023-03-13T14:10:38.790Z,2.87
2023-03-13T14:13:15.466Z,4.27
2023-03-13T14:15:45.805Z,3.40
2023-03-13T14:18:21.385Z,2.30
2023-03-13T14:21:13.490Z,2.07
2023-03-13T14:23:43.129Z,2.17
2023-03-13T14:26:14.487Z,1.40
2023-03-13T14:28:46.274Z,4.60
2023-03-13T14:31:23.905Z,3.90
2023-03-13T14:33:52.322Z,4.97
2023-03-13T14:36:20.552Z,1.87
2023-03-13T14:38:56.719Z,2.07
2023-03-13T14:41:29.280Z,3.73
2023-03-13T14:44:03.915Z,4.00
2023-03-13T14:46:34.026Z,3.40
2023-03-13T14:49:18.053Z,2.03
2023-03-13T14:51:46.611Z,1.90
2023-03-13T14:54:26.691Z,2.40
2023-03-13T14:57:14.818Z,4.07
2023-03-13T14:59:44.569Z,4.40
2023-03-13T15:02:23.175Z,4.00
2023-03-13T15:04:57.404Z,3.60
2023-03-13T15:07:27.638Z,5.27
2023-03-13T15:09:55.817Z,2.67
2023-03-13T15:12:24.989Z,1.07
2023-03-13T15:14:54.571Z,4.07
2023-03-13T15:17:24.213Z,4.23
2023-03-13T15:19:54.255Z,1.30
2023-03-13T15:22:28.101Z,2.30
2023-03-13T15:25:05.996Z,2.00
2023-03-13T15:27:37.293Z,1.97
2023-03-13T15:30:08.535Z,3.93
2023-03-13T15:32:40.129Z,2.67
2023-03-13T15:35:24.488Z,1.13
2023-03-13T15:37:52.542Z,1.03
2023-03-13T15:40:20.926Z,0.80
2023-03-13T15:42:48.945Z,1.80
2023-03-13T15:45:18.423Z,0.77
2023-03-13T15:47:47.983Z,0.90
2023-03-13T15:50:17.756Z,3.30
2023-03-13T15:52:45.786Z,0.73
2023-03-13T15:55:14.485Z,1.00
2023-03-13T15:57:46.905Z,0.90
2023-03-13T16:00:23.600Z,0.70
2023-03-13T16:02:51.780Z,1.10
2023-03-13T16:05:19.886Z,1.03
2023-03-13T16:07:48.103Z,1.40
2023-03-13T16:10:19.329Z,0.90
2023-03-13T16:12:47.411Z,1.03
2023-03-13T16:15:15.548Z,0.70
2023-03-13T16:17:44.908Z,0.70
2023-03-13T16:20:17.464Z,1.37
2023-03-13T16:22:45.879Z,0.90
2023-03-13T16:25:14.858Z,1.10
2023-03-13T16:27:43.153Z,1.33
2023-03-13T16:30:18.750Z,0.80
2023-03-13T16:32:48.234Z,2.13
2023-03-13T16:35:16.507Z,0.80
2023-03-13T16:37:44.567Z,1.00
2023-03-13T16:40:16.568Z,1.03
2023-03-13T16:42:44.932Z,1.67
2023-03-13T16:45:14.399Z,1.13
2023-03-13T16:47:43.200Z,1.67
2023-03-13T16:50:23.498Z,3.80
2023-03-13T16:52:52.320Z,0.97
2023-03-13T16:55:21.430Z,1.17
2023-03-13T16:57:49.442Z,1.20
2023-03-13T17:00:20.186Z,5.43
2023-03-13T17:02:48.590Z,2.00
2023-03-13T17:05:18.794Z,2.07
2023-03-13T17:07:49.280Z,2.90
2023-03-13T17:10:22.968Z,1.87
2023-03-13T17:12:51.448Z,0.87
2023-03-13T17:15:20.980Z,1.00
2023-03-13T17:17:52.346Z,1.87
2023-03-13T17:20:23.572Z,1.77
2023-03-13T17:22:51.769Z,5.07
2023-03-13T17:25:20.083Z,1.70
2023-03-13T17:27:48.524Z,1.57
2023-03-13T17:30:20.726Z,2.00
2023-03-13T17:32:49.973Z,1.33
2023-03-13T17:35:19.245Z,2.97
2023-03-13T17:37:49.178Z,2.38
2023-03-13T17:40:20.300Z,2.70
2023-03-13T17:42:48.536Z,2.97
2023-03-13T17:45:16.872Z,1.23
2023-03-13T17:47:45.155Z,2.83
2023-03-13T17:50:19.682Z,1.97
2023-03-13T17:52:49.049Z,4.00
2023-03-13T17:55:17.345Z,2.90
2023-03-13T17:57:47.135Z,3.10
2023-03-13T18:00:21.458Z,2.60
2023-03-13T18:02:49.975Z,2.33
2023-03-13T18:05:18.685Z,2.90
2023-03-13T18:07:47.536Z,4.17
2023-03-13T18:10:20.151Z,2.80
2023-03-13T18:12:48.501Z,3.47
2023-03-13T18:15:16.659Z,2.63
2023-03-13T18:17:45.197Z,2.27
2023-03-13T18:20:17.242Z,2.53
2023-03-13T18:22:45.458Z,2.43
2023-03-13T18:25:14.424Z,3.23
2023-03-13T18:27:43.800Z,3.00
2023-03-13T18:30:16.746Z,3.87
2023-03-13T18:32:45.085Z,2.93
2023-03-13T18:35:14.532Z,1.93
2023-03-13T18:37:44.162Z,1.67
2023-03-13T18:40:17.972Z,2.40
2023-03-13T18:42:47.660Z,2.70
2023-03-13T18:45:16.384Z,1.90
2023-03-13T18:47:44.453Z,1.80
2023-03-13T18:50:26.354Z,1.43
2023-03-13T18:52:55.497Z,1.10
2023-03-13T18:55:23.797Z,2.63
2023-03-13T18:57:53.506Z,6.33
2023-03-13T19:00:24.564Z,2.00
2023-03-13T19:02:52.982Z,2.30
2023-03-13T19:05:22.019Z,3.00
2023-03-13T19:07:50.201Z,2.53
2023-03-13T19:10:24.474Z,4.60
2023-03-13T19:12:55.813Z,2.23
2023-03-13T19:15:26.332Z,1.47
2023-03-13T19:17:56.047Z,12.03
2023-03-13T19:20:24.720Z,2.63
2023-03-13T19:22:54.442Z,2.70
2023-03-13T19:25:23.232Z,1.30
2023-03-13T19:27:51.199Z,3.67
2023-03-13T19:30:22.041Z,1.10
2023-03-13T19:32:50.411Z,3.63
2023-03-13T19:35:21.110Z,1.43
2023-03-13T19:37:49.251Z,2.03
2023-03-13T19:40:20.394Z,1.87
2023-03-13T19:42:48.407Z,2.53
2023-03-13T19:45:19.588Z,1.20
2023-03-13T19:47:49.385Z,3.27
2023-03-13T19:50:20.324Z,1.40
2023-03-13T19:52:48.369Z,1.20
2023-03-13T19:55:16.514Z,1.63
2023-03-13T19:57:44.593Z,4.40
2023-03-13T20:00:19.811Z,2.03
2023-03-13T20:02:49.371Z,2.20
2023-03-13T20:05:17.599Z,1.70
2023-03-13T20:07:46.726Z,2.50
2023-03-13T20:10:15.001Z,3.63
2023-03-13T20:12:43.118Z,2.10
2023-03-13T20:15:12.315Z,2.30
2023-03-13T20:17:40.373Z,2.67
2023-03-13T20:20:11.449Z,4.33
2023-03-13T20:22:39.508Z,2.13
2023-03-13T20:25:08.012Z,1.10
2023-03-13T20:27:37.222Z,2.23
2023-03-13T20:30:06.272Z,1.60
2023-03-13T20:32:34.343Z,1.87
2023-03-13T20:35:02.716Z,1.27
2023-03-13T20:37:32.088Z,1.20
2023-03-13T20:40:00.137Z,4.83
2023-03-13T20:42:28.275Z,2.27
2023-03-13T20:44:56.307Z,4.43
2023-03-13T20:47:24.332Z,2.20
2023-03-13T20:49:52.339Z,1.20
2023-03-13T20:52:20.341Z,4.37
2023-03-13T20:54:49.674Z,4.80
2023-03-13T20:57:19.451Z,1.30
2023-03-13T20:59:47.589Z,1.20
2023-03-13T21:02:15.791Z,1.33
2023-03-13T21:04:44.211Z,1.53
2023-03-13T21:07:12.318Z,2.07
2023-03-13T21:09:40.344Z,3.93
2023-03-13T21:12:10.398Z,2.80
2023-03-13T21:14:38.435Z,1.43
2023-03-13T21:17:06.585Z,1.10
2023-03-13T21:19:35.005Z,2.60
2023-03-13T21:22:03.059Z,14.33
2023-03-13T21:24:31.059Z,5.77
2023-03-13T21:26:59.917Z,1.27
2023-03-13T21:29:29.294Z,1.70
2023-03-13T21:31:57.658Z,1.10
2023-03-13T21:34:25.703Z,3.33
2023-03-13T21:36:53.717Z,2.20
2023-03-13T21:39:22.730Z,3.17
2023-03-13T21:41:50.781Z,2.83
2023-03-13T21:44:19.579Z,3.20
2023-03-13T21:46:49.024Z,1.47
2023-03-13T21:49:17.077Z,1.37
2023-03-13T21:51:45.150Z,1.77
2023-03-13T21:54:13.177Z,0.70
2023-03-13T21:56:41.160Z,3.73
2023-03-13T21:59:09.290Z,1.10
2023-03-13T22:01:37.334Z,0.60
2023-03-13T22:04:06.770Z,0.70
2023-03-13T22:06:35.577Z,1.30
2023-03-13T22:09:04.624Z,0.70
2023-03-13T22:11:32.916Z,0.70
2023-03-13T22:14:01.278Z,1.07
2023-03-13T22:16:29.454Z,1.63
2023-03-13T22:18:57.518Z,1.97
2023-03-13T22:21:26.871Z,1.00
2023-03-13T22:23:54.918Z,1.13
2023-03-13T22:26:22.943Z,0.90
2023-03-13T22:28:50.919Z,1.40
2023-03-13T22:31:19.415Z,0.93
2023-03-13T22:33:47.533Z,0.67
2023-03-13T22:36:15.623Z,2.07
2023-03-13T22:38:45.049Z,0.70
2023-03-13T22:41:14.430Z,1.00
2023-03-13T22:43:42.714Z,0.80
2023-03-13T22:46:11.332Z,0.80
2023-03-13T22:48:39.806Z,1.00
2023-03-13T22:51:09.823Z,0.90
2023-03-13T22:53:39.529Z,1.40
2023-03-13T22:56:10.902Z,0.97
2023-03-13T22:58:39.744Z,1.87
2023-03-13T23:01:08.387Z,1.80
2023-03-13T23:03:36.624Z,2.37
2023-03-13T23:06:06.995Z,4.47
2023-03-13T23:08:35.717Z,0.80
2023-03-13T23:11:05.080Z,1.73
2023-03-13T23:13:34.485Z,0.70
2023-03-13T23:16:05.244Z,0.90
2023-03-13T23:18:33.286Z,1.77
2023-03-13T23:21:05.104Z,2.80
2023-03-13T23:23:33.138Z,0.80
2023-03-13T23:26:01.200Z,2.10
2023-03-13T23:28:29.264Z,1.00
2023-03-13T23:30:58.697Z,2.10
2023-03-13T23:33:26.753Z,2.03
2023-03-13T23:35:54.816Z,0.70
2023-03-13T23:38:23.952Z,0.90
2023-03-13T23:40:53.072Z,1.13
2023-03-13T23:43:21.079Z,0.70
2023-03-13T23:45:49.084Z,0.80
2023-03-13T23:48:18.470Z,4.63
2023-03-13T23:50:46.553Z,0.77
2023-03-13T23:53:14.574Z,1.13
2023-03-13T23:55:42.611Z,1.17
2023-03-13T23:58:10.663Z,0.80
